Time;durP1;ratioP1;P1;durP2;ratioP2;P2;SDS_P1;SDS_P2;PMS_P1;PMS_P2;Temp;Humidity;BMP_temperature;BMP_pressure;BME280_temperature;BME280_humidity;BME280_pressure;Samples;Min_cycle;Max_cycle;Signal;HPM_P1;HPM_P2
2022/01/09 00:01:16;;;;;;;6.00;4.13;;;;;;;-2.93;100.00;94914.50;10476837;28;20256;-80
2022/01/09 00:06:16;;;;;;;4.63;2.93;;;;;;;-2.89;100.00;94905.66;10494804;28;20258;-80
2022/01/09 00:11:25;;;;;;;4.83;3.20;;;;;;;-2.90;100.00;94892.97;10476445;28;20282;-80
2022/01/09 00:16:25;;;;;;;7.43;2.77;;;;;;;-2.76;100.00;94872.19;10494537;28;20314;-80
2022/01/09 00:21:25;;;;;;;5.87;3.23;;;;;;;-2.79;100.00;94861.38;10494045;28;20621;-80
2022/01/09 00:26:26;;;;;;;11.00;4.50;;;;;;;-2.85;100.00;94849.06;10475852;28;20175;-80
2022/01/09 00:31:26;;;;;;;5.77;3.80;;;;;;;-2.69;100.00;94847.72;10493881;28;20199;-80
2022/01/09 00:36:27;;;;;;;5.37;3.53;;;;;;;-2.66;100.00;94812.50;10475928;28;20789;-80
2022/01/09 00:41:27;;;;;;;7.70;2.93;;;;;;;-2.64;100.00;94814.03;10494110;28;20186;-80
2022/01/09 00:46:27;;;;;;;3.50;2.70;;;;;;;-2.64;100.00;94780.72;10493275;28;20188;-80
2022/01/09 00:51:28;;;;;;;5.00;3.57;;;;;;;-2.75;100.00;94799.50;10493926;28;20187;-80
2022/01/09 00:56:28;;;;;;;5.40;3.83;;;;;;;-2.72;100.00;94777.97;10493129;28;20219;-80
2022/01/09 01:01:28;;;;;;;8.13;4.07;;;;;;;-2.72;100.00;94793.34;10493436;28;20192;-82
2022/01/09 01:06:29;;;;;;;6.83;3.97;;;;;;;-2.70;100.00;94774.31;10493250;28;20738;-80
2022/01/09 01:11:29;;;;;;;4.57;3.17;;;;;;;-2.61;100.00;94789.91;10493152;28;20546;-81
2022/01/09 01:16:29;;;;;;;6.20;3.40;;;;;;;-2.51;100.00;94760.03;10493059;28;20309;-80
2022/01/09 01:21:30;;;;;;;8.00;4.37;;;;;;;-2.45;100.00;94768.97;10475001;28;20198;-81
2022/01/09 01:26:31;;;;;;;7.20;4.17;;;;;;;-2.36;100.00;94751.09;10493046;28;20187;-81
2022/01/09 01:31:31;;;;;;;7.60;4.13;;;;;;;-2.28;100.00;94753.03;10475170;28;20202;-80
2022/01/09 01:36:31;;;;;;;6.00;2.63;;;;;;;-2.42;100.00;94748.19;10496355;28;20254;-80
2022/01/09 01:41:32;;;;;;;8.60;3.07;;;;;;;-2.33;100.00;94725.19;10500645;28;20190;-80
2022/01/09 01:46:32;;;;;;;4.17;2.83;;;;;;;-2.32;100.00;94723.44;10465136;28;20188;-81
2022/01/09 01:51:35;;;;;;;5.40;3.57;;;;;;;-2.40;100.00;94713.00;10482398;28;20287;-80
2022/01/09 01:56:36;;;;;;;5.90;3.10;;;;;;;-2.36;100.00;94678.47;10482310;28;20215;-80
2022/01/09 02:01:37;;;;;;;6.47;4.17;;;;;;;-2.40;100.00;94693.31;10497825;28;20553;-80
2022/01/09 02:06:37;;;;;;;6.20;3.63;;;;;;;-2.38;100.00;94688.84;10481878;28;20552;-80
2022/01/09 02:11:38;;;;;;;4.80;3.03;;;;;;;-2.28;100.00;94667.56;10498730;28;20650;-80
2022/01/09 02:16:42;;;;;;;6.17;2.70;;;;;;;-2.35;100.00;94644.19;10499041;28;20223;-80
2022/01/09 02:21:44;;;;;;;7.03;3.40;;;;;;;-2.31;100.00;94666.09;10480881;28;20222;-80
2022/01/09 02:26:45;;;;;;;6.03;2.97;;;;;;;-2.27;100.00;94633.31;10480942;28;20612;-79
2022/01/09 02:31:45;;;;;;;6.40;3.17;;;;;;;-2.23;100.00;94668.81;10498426;28;20187;-81
2022/01/09 02:36:45;;;;;;;5.70;2.30;;;;;;;-2.22;100.00;94647.38;10479926;28;20223;-80
2022/01/09 02:41:46;;;;;;;5.83;2.37;;;;;;;-2.21;100.00;94643.84;10498737;28;20545;-81
2022/01/09 02:46:59;;;;;;;3.77;2.43;;;;;;;-2.21;100.00;94618.19;10496641;28;20599;-80
2022/01/09 02:52:04;;;;;;;3.83;2.30;;;;;;;-2.13;100.00;94619.31;10497735;28;20187;-80
2022/01/09 02:57:05;;;;;;;12.27;2.87;;;;;;;-2.01;100.00;94613.94;10496987;28;20654;-81
2022/01/09 03:02:05;;;;;;;4.23;2.30;;;;;;;-1.99;100.00;94612.06;10462933;28;20192;-80
2022/01/09 03:07:06;;;;;;;1.57;1.47;;;;;;;-1.96;100.00;94613.56;10479624;28;20673;-81
2022/01/09 03:12:06;;;;;;;3.60;2.07;;;;;;;-2.01;100.00;94613.13;10496060;28;20571;-80
2022/01/09 03:17:07;;;;;;;4.53;2.90;;;;;;;-2.00;100.00;94625.03;10496679;28;20219;-82
2022/01/09 03:22:07;;;;;;;5.90;2.77;;;;;;;-1.97;100.00;94589.63;10496580;28;20277;-80
2022/01/09 03:27:09;;;;;;;4.20;2.43;;;;;;;-2.00;100.00;94571.16;10476557;28;20546;-79
2022/01/09 03:32:09;;;;;;;4.03;2.53;;;;;;;-1.92;100.00;94573.84;10495947;28;20179;-81
2022/01/09 03:37:10;;;;;;;4.20;2.40;;;;;;;-1.85;100.00;94553.63;10477923;28;20234;-81
2022/01/09 03:42:10;;;;;;;3.23;1.57;;;;;;;-1.76;100.00;94562.25;10477592;28;20194;-80
2022/01/09 03:47:11;;;;;;;1.67;1.50;;;;;;;-1.64;100.00;94540.63;10495705;28;20184;-81
2022/01/09 03:52:14;;;;;;;1.60;1.50;;;;;;;-1.69;100.00;94524.84;10477177;28;20211;-80
2022/01/09 03:57:14;;;;;;;5.00;1.70;;;;;;;-1.58;100.00;94521.31;10477376;28;20227;-79
2022/01/09 04:02:14;;;;;;;4.67;2.10;;;;;;;-1.48;100.00;94520.34;10476561;28;20198;-81
2022/01/09 04:07:16;;;;;;;1.60;1.40;;;;;;;-1.61;100.00;94501.84;10497438;28;20193;-80
2022/01/09 04:12:18;;;;;;;3.07;1.97;;;;;;;-1.61;100.00;94548.06;10528060;28;20191;-80
2022/01/09 04:17:37;;;;;;;4.10;2.63;;;;;;;-1.73;100.00;94544.84;10511226;28;20230;-81
2022/01/09 04:22:37;;;;;;;3.63;2.30;;;;;;;-1.71;100.00;94540.38;10528749;28;20634;-80
2022/01/09 04:27:40;;;;;;;3.90;2.10;;;;;;;-1.82;100.00;94540.50;10511086;28;20203;-80
2022/01/09 04:32:41;;;;;;;5.53;2.67;;;;;;;-1.73;100.00;94516.59;10510927;28;20198;-80
2022/01/09 04:37:42;;;;;;;3.80;2.30;;;;;;;-1.73;100.00;94508.91;10528394;28;20234;-81
2022/01/09 04:42:45;;;;;;;2.43;2.10;;;;;;;-1.75;100.00;94515.09;10510329;28;20186;-81
2022/01/09 04:47:48;;;;;;;7.30;3.23;;;;;;;-1.74;100.00;94516.75;10527190;28;20187;-80
2022/01/09 04:52:52;;;;;;;9.40;3.37;;;;;;;-1.72;100.00;94515.63;10528081;28;20202;-81
2022/01/09 04:57:53;;;;;;;5.30;2.80;;;;;;;-1.80;100.00;94518.09;10527465;28;20336;-82
2022/01/09 05:02:53;;;;;;;4.13;3.17;;;;;;;-1.92;100.00;94514.03;10514524;28;20670;-80
2022/01/09 05:07:53;;;;;;;4.33;2.60;;;;;;;-1.87;100.00;94517.81;10535180;28;20274;-81
2022/01/09 05:12:54;;;;;;;8.07;3.03;;;;;;;-1.70;100.00;94528.34;10541014;28;20191;-80
2022/01/09 05:17:59;;;;;;;4.70;3.40;;;;;;;-1.68;100.00;94490.53;10544097;28;20218;-80
2022/01/09 05:22:59;;;;;;;3.00;2.40;;;;;;;-1.57;100.00;94504.97;10508837;28;20661;-81
2022/01/09 05:27:59;;;;;;;2.97;2.33;;;;;;;-1.35;100.00;94491.81;10543097;28;20312;-80
2022/01/09 05:33:00;;;;;;;3.33;2.27;;;;;;;-1.32;100.00;94495.88;10524816;28;20194;-80
2022/01/09 05:38:00;;;;;;;3.07;1.77;;;;;;;-1.31;100.00;94490.59;10542039;28;20241;-80
2022/01/09 05:43:00;;;;;;;2.47;1.93;;;;;;;-1.38;100.00;94478.44;10524599;28;20190;-80
2022/01/09 05:48:02;;;;;;;2.43;1.80;;;;;;;-1.35;100.00;94471.25;10541991;28;20274;-79
2022/01/09 05:53:02;;;;;;;6.97;2.83;;;;;;;-1.36;100.00;94485.06;10542087;28;20248;-80
2022/01/09 05:58:03;;;;;;;3.13;2.40;;;;;;;-1.27;100.00;94491.13;10541842;28;20218;-79
2022/01/09 06:03:03;;;;;;;2.17;1.77;;;;;;;-1.31;100.00;94482.09;10523100;28;20236;-80
2022/01/09 06:08:04;;;;;;;3.53;2.07;;;;;;;-1.26;100.00;94515.84;10542204;28;20187;-80
2022/01/09 06:13:04;;;;;;;5.63;2.23;;;;;;;-1.22;100.00;94493.28;10540612;28;20195;-79
2022/01/09 06:18:05;;;;;;;3.00;2.03;;;;;;;-1.12;100.00;94506.91;10541480;28;20236;-79
2022/01/09 06:23:05;;;;;;;5.77;2.70;;;;;;;-1.17;100.00;94497.03;10539392;28;20187;-80
2022/01/09 06:28:05;;;;;;;4.23;2.40;;;;;;;-1.24;100.00;94493.44;10540807;28;20646;-79
2022/01/09 06:33:06;;;;;;;5.07;2.47;;;;;;;-1.18;100.00;94482.59;10522587;28;20198;-79
2022/01/09 06:38:06;;;;;;;3.17;2.50;;;;;;;-1.16;100.00;94490.97;10539469;28;20218;-79
2022/01/09 06:43:07;;;;;;;7.13;2.97;;;;;;;-1.30;100.00;94483.72;10522177;28;20239;-80
2022/01/09 06:48:07;;;;;;;2.30;2.10;;;;;;;-1.30;100.00;94494.78;10521964;28;20225;-79
2022/01/09 06:53:08;;;;;;;3.10;2.77;;;;;;;-1.38;100.00;94496.41;10539592;28;20549;-79
2022/01/09 06:58:08;;;;;;;5.73;2.30;;;;;;;-1.30;100.00;94496.56;10539307;28;20226;-79
2022/01/09 07:03:08;;;;;;;4.03;2.97;;;;;;;-1.31;100.00;94494.91;10520650;28;20622;-79
2022/01/09 07:08:09;;;;;;;3.10;2.47;;;;;;;-1.20;100.00;94496.53;10539329;28;20265;-80
2022/01/09 07:13:09;;;;;;;29.23;11.60;;;;;;;-1.25;100.00;94496.94;10538447;28;20198;-79
2022/01/09 07:18:09;;;;;;;3.43;2.27;;;;;;;-1.22;100.00;94512.06;10538759;28;20218;-80
2022/01/09 07:23:10;;;;;;;5.47;3.77;;;;;;;-1.29;100.00;94495.59;10538486;28;20190;-80
2022/01/09 07:28:10;;;;;;;3.00;2.40;;;;;;;-1.32;100.00;94503.56;10538258;28;20238;-79
2022/01/09 07:33:11;;;;;;;4.10;2.97;;;;;;;-1.38;100.00;94499.78;10537737;28;20202;-80
2022/01/09 07:38:11;;;;;;;4.47;3.27;;;;;;;-1.24;100.00;94498.56;10537791;28;20694;-80
2022/01/09 07:43:11;;;;;;;6.47;3.37;;;;;;;-1.32;100.00;94516.41;10537628;28;20550;-81
2022/01/09 07:48:12;;;;;;;4.27;2.90;;;;;;;-1.24;100.00;94500.31;10519225;28;20553;-81
2022/01/09 07:53:12;;;;;;;4.90;3.60;;;;;;;-1.30;100.00;94514.53;10519167;28;20199;-80
2022/01/09 07:58:13;;;;;;;2.90;2.43;;;;;;;-1.32;100.00;94518.97;10501233;28;20707;-82
2022/01/09 08:03:15;;;;;;;2.60;2.40;;;;;;;-1.32;100.00;94514.66;10536828;28;20199;-80
2022/01/09 08:08:16;;;;;;;3.53;2.43;;;;;;;-1.34;100.00;94513.19;10518796;28;20645;-79
2022/01/09 08:13:16;;;;;;;4.07;3.13;;;;;;;-1.37;100.00;94519.38;10518692;28;20727;-79
2022/01/09 08:18:16;;;;;;;3.40;2.27;;;;;;;-1.23;100.00;94527.63;10535806;28;20210;-79
2022/01/09 08:23:17;;;;;;;4.70;2.30;;;;;;;-1.15;100.00;94535.44;10536597;28;20202;-78
2022/01/09 08:28:17;;;;;;;5.60;1.70;;;;;;;-0.95;100.00;94536.19;10535996;28;20646;-78
2022/01/09 08:33:23;;;;;;;3.60;2.03;;;;;;;-1.02;100.00;94532.59;10535772;28;20217;-78
2022/01/09 08:38:25;;;;;;;3.40;2.30;;;;;;;-0.96;100.00;94532.81;10536021;28;20698;-78
2022/01/09 08:43:25;;;;;;;5.77;2.30;;;;;;;-0.90;100.00;94539.19;10535777;28;20202;-79
2022/01/09 08:48:25;;;;;;;2.90;2.60;;;;;;;-0.81;100.00;94542.63;10535413;28;20556;-78
2022/01/09 08:53:26;;;;;;;2.73;2.37;;;;;;;-0.72;100.00;94545.19;10506571;28;20271;-77
2022/01/09 08:58:26;;;;;;;2.60;2.37;;;;;;;-0.61;100.00;94558.84;10508621;28;20205;-77
2022/01/09 09:03:27;;;;;;;2.00;1.70;;;;;;;-0.57;100.00;94573.00;10527373;28;20195;-77
2022/01/09 09:08:27;;;;;;;3.67;2.70;;;;;;;-0.67;100.00;94564.50;10497996;28;20187;-77
2022/01/09 09:13:27;;;;;;;2.90;2.27;;;;;;;-0.83;100.00;94580.53;10507096;28;20282;-77
2022/01/09 09:18:28;;;;;;;4.50;2.50;;;;;;;-0.95;100.00;94577.31;10488923;28;20230;-76
2022/01/09 09:23:28;;;;;;;4.50;3.40;;;;;;;-1.07;100.00;94586.97;10507208;28;20192;-78
2022/01/09 09:28:28;;;;;;;5.93;2.57;;;;;;;-0.98;100.00;94585.28;10503705;28;20178;-77
2022/01/09 09:33:29;;;;;;;4.50;2.73;;;;;;;-0.82;100.00;94579.59;10487377;28;20685;-78
2022/01/09 09:38:30;;;;;;;4.17;3.00;;;;;;;-0.69;100.00;94594.69;10483092;28;20231;-79
2022/01/09 09:43:30;;;;;;;2.87;2.23;;;;;;;-0.56;100.00;94579.78;10445680;28;20196;-79
2022/01/09 09:48:30;;;;;;;3.03;2.33;;;;;;;-0.48;100.00;94597.06;10464362;28;20192;-78
2022/01/09 09:53:31;;;;;;;2.97;2.37;;;;;;;-0.28;100.00;94602.94;10463618;28;20196;-79
2022/01/09 09:58:31;;;;;;;2.60;1.90;;;;;;;-0.25;100.00;94592.38;10458403;28;20223;-79
2022/01/09 10:03:33;;;;;;;2.60;2.13;;;;;;;0.04;100.00;94594.00;10439966;28;20198;-80
2022/01/09 10:08:38;;;;;;;3.20;1.80;;;;;;;0.48;100.00;94589.78;10440070;28;20214;-79
2022/01/09 10:13:38;;;;;;;3.00;2.47;;;;;;;0.33;100.00;94581.72;10438516;28;20191;-81
2022/01/09 10:18:53;;;;;;;3.63;2.10;;;;;;;0.10;100.00;94581.34;10457385;28;20272;-82
2022/01/09 10:24:00;;;;;;;2.20;2.00;;;;;;;0.33;100.00;94594.59;10457202;28;20194;-82
2022/01/09 10:29:02;;;;;;;2.13;1.90;;;;;;;0.69;100.00;94596.41;10456974;28;20248;-81
2022/01/09 10:34:06;;;;;;;3.90;2.70;;;;;;;1.00;99.45;94583.91;10457363;28;20210;-81
2022/01/09 10:39:14;;;;;;;3.70;2.43;;;;;;;0.94;97.43;94581.94;10465550;28;20230;-81
2022/01/09 10:44:16;;;;;;;2.57;2.10;;;;;;;1.06;96.63;94593.63;10463824;28;20227;-81
2022/01/09 10:49:16;;;;;;;2.60;1.57;;;;;;;1.22;95.80;94580.00;10497849;28;20189;-80
2022/01/09 10:54:30;;;;;;;1.93;1.73;;;;;;;1.50;94.86;94589.38;10498051;28;20190;-80
2022/01/09 10:59:31;;;;;;;3.83;2.17;;;;;;;1.56;94.00;94596.50;10478991;28;20238;-79
2022/01/09 11:04:31;;;;;;;2.50;2.30;;;;;;;1.52;96.20;94616.63;10479998;28;20201;-78
2022/01/09 11:09:33;;;;;;;3.20;2.07;;;;;;;1.72;93.11;94596.56;10496218;28;20255;-78
2022/01/09 11:14:36;;;;;;;3.27;2.67;;;;;;;1.52;93.56;94602.94;10496365;28;20186;-78
2022/01/09 11:19:37;;;;;;;2.43;2.07;;;;;;;1.38;94.77;94623.16;10478786;28;20769;-78
2022/01/09 11:24:56;;;;;;;2.87;1.93;;;;;;;1.45;93.97;94617.41;10496346;28;20599;-79
2022/01/09 11:30:24;;;;;;;4.73;3.10;;;;;;;1.00;96.97;94656.09;10478259;28;20555;-79
2022/01/09 11:35:30;;;;;;;3.17;2.73;;;;;;;0.68;99.30;94672.88;10496277;28;20202;-79
2022/01/09 11:40:32;;;;;;;2.57;2.03;;;;;;;0.39;100.00;94690.28;10495485;28;20605;-79
2022/01/09 11:45:39;;;;;;;4.20;2.60;;;;;;;0.43;100.00;94681.31;10495955;28;20281;-79
2022/01/09 11:51:04;;;;;;;4.03;2.80;;;;;;;0.40;100.00;94684.16;10477712;28;20611;-79
2022/01/09 11:56:04;;;;;;;4.40;2.67;;;;;;;0.28;100.00;94689.53;10494836;28;20258;-79
2022/01/09 12:01:06;;;;;;;4.03;2.37;;;;;;;0.28;100.00;94699.81;10495116;28;20258;-79
2022/01/09 12:06:11;;;;;;;3.97;3.07;;;;;;;0.41;100.00;94706.41;10494957;28;20674;-80
2022/01/09 12:11:11;;;;;;;4.67;3.00;;;;;;;0.45;100.00;94711.13;10476674;28;20200;-79
2022/01/09 12:16:47;;;;;;;3.50;2.60;;;;;;;0.56;100.00;94719.63;10476868;28;20603;-79
2022/01/09 12:21:49;;;;;;;2.97;2.43;;;;;;;0.69;100.00;94713.16;10475915;28;20728;-79
2022/01/09 12:26:49;;;;;;;4.30;3.23;;;;;;;0.65;100.00;94721.31;10494368;28;20191;-79
2022/01/09 12:31:49;;;;;;;7.10;3.63;;;;;;;0.74;100.00;94723.03;10494563;28;20194;-79
2022/01/09 12:36:54;;;;;;;140.53;45.63;;;;;;;0.95;100.00;94729.66;10493728;28;20246;-79
2022/01/09 12:41:55;;;;;;;89.80;37.00;;;;;;;1.02;100.00;94746.97;10493970;28;20582;-79
2022/01/09 12:46:55;;;;;;;7.60;5.40;;;;;;;0.95;100.00;94758.03;10493739;28;20201;-79
2022/01/09 12:52:00;;;;;;;10.63;6.47;;;;;;;0.65;100.00;94770.28;10475895;28;20297;-79
2022/01/09 12:57:02;;;;;;;5.27;4.20;;;;;;;0.80;100.00;94775.78;10493326;28;20222;-79
2022/01/09 13:02:10;;;;;;;10.67;6.00;;;;;;;0.66;100.00;94774.50;10493249;28;20189;-79
2022/01/09 13:07:14;;;;;;;50.20;21.37;;;;;;;0.38;100.00;94781.38;10493117;28;20196;-79
2022/01/09 13:12:17;;;;;;;30.87;12.23;;;;;;;0.30;100.00;94798.34;10493178;28;20331;-80
2022/01/09 13:17:19;;;;;;;19.10;8.97;;;;;;;0.28;100.00;94804.59;10475573;28;20229;-79
2022/01/09 13:22:21;;;;;;;13.30;9.67;;;;;;;0.05;100.00;94806.72;10491680;28;20190;-80
2022/01/09 13:27:22;;;;;;;20.20;11.10;;;;;;;-0.06;100.00;94808.47;10492970;28;20286;-79
2022/01/09 13:32:22;;;;;;;13.53;8.37;;;;;;;-0.16;100.00;94817.16;10497449;28;20194;-79
2022/01/09 13:37:23;;;;;;;27.87;16.73;;;;;;;-0.09;100.00;94826.78;10500122;28;20238;-80
2022/01/09 13:42:25;;;;;;;33.23;16.63;;;;;;;-0.13;100.00;94845.19;10499855;28;20276;-79
2022/01/09 13:47:27;;;;;;;16.67;8.97;;;;;;;-0.09;100.00;94847.38;10463021;28;20569;-80
2022/01/09 13:52:32;;;;;;;16.83;9.50;;;;;;;-0.14;100.00;94841.00;10500069;28;20732;-80
2022/01/09 13:57:56;;;;;;;18.67;10.53;;;;;;;-0.06;100.00;94851.41;10500184;28;20222;-80
2022/01/09 14:02:58;;;;;;;15.60;8.27;;;;;;;-0.10;100.00;94868.91;10499619;28;20263;-80
2022/01/09 14:07:58;;;;;;;24.87;11.93;;;;;;;0.03;100.00;94867.78;10481792;28;20187;-79
2022/01/09 14:12:59;;;;;;;19.47;9.73;;;;;;;0.14;100.00;94878.75;10480900;28;20195;-80
2022/01/09 14:17:59;;;;;;;19.87;10.30;;;;;;;0.23;100.00;94887.44;10481450;28;20258;-79
2022/01/09 14:23:10;;;;;;;13.07;7.07;;;;;;;0.34;100.00;94889.03;10498559;28;20202;-79
2022/01/09 14:28:12;;;;;;;19.40;9.40;;;;;;;0.43;100.00;94905.41;10498821;28;20193;-79
2022/01/09 14:33:19;;;;;;;40.47;18.80;;;;;;;0.46;100.00;94910.28;10498262;28;20194;-79
2022/01/09 14:38:24;;;;;;;25.90;13.40;;;;;;;0.57;100.00;94923.00;10501188;28;20229;-79
2022/01/09 14:43:27;;;;;;;6.80;4.30;;;;;;;0.47;100.00;94929.94;10538893;28;20199;-79
2022/01/09 14:48:31;;;;;;;77.53;38.27;;;;;;;0.48;100.00;94945.25;10521840;28;20204;-79
2022/01/09 14:53:32;;;;;;;2.43;2.23;;;;;;;0.53;100.00;94952.56;10521571;28;20194;-79
2022/01/09 14:58:32;;;;;;;1.73;1.20;;;;;;;0.50;100.00;94965.72;10539557;28;20221;-80
2022/01/09 15:03:33;;;;;;;1.80;1.63;;;;;;;0.43;100.00;94970.63;10520961;28;20197;-80
2022/01/09 15:08:34;;;;;;;1.10;1.00;;;;;;;0.39;100.00;94978.78;10504232;28;20715;-81
2022/01/09 15:13:35;;;;;;;1.17;1.10;;;;;;;0.30;100.00;94980.41;10538802;28;20248;-82
2022/01/09 15:18:35;;;;;;;1.40;1.30;;;;;;;0.21;100.00;94999.22;10520299;28;20226;-82
2022/01/09 15:23:37;;;;;;;1.40;1.20;;;;;;;0.23;100.00;95002.47;10533146;28;20193;-82
2022/01/09 15:28:37;;;;;;;1.60;1.50;;;;;;;0.17;100.00;95012.38;10513841;28;20187;-82
2022/01/09 15:33:37;;;;;;;1.57;1.47;;;;;;;0.20;100.00;95021.59;10519413;28;20190;-81
2022/01/09 15:38:38;;;;;;;1.17;1.13;;;;;;;0.20;100.00;95026.75;10537789;28;20342;-81
2022/01/09 15:43:40;;;;;;;1.73;1.63;;;;;;;0.18;100.00;95041.50;10519201;28;20564;-81
2022/01/09 15:48:40;;;;;;;1.30;1.20;;;;;;;0.11;100.00;95055.88;10537241;28;20209;-81
2022/01/09 15:53:41;;;;;;;1.63;1.37;;;;;;;0.12;100.00;95065.22;10518820;28;20188;-81
2022/01/09 15:58:41;;;;;;;1.30;1.20;;;;;;;0.06;100.00;95076.88;10518809;28;20221;-81
2022/01/09 16:03:41;;;;;;;2.33;1.70;;;;;;;0.11;100.00;95074.72;10536489;28;20197;-81
2022/01/09 16:08:42;;;;;;;3.30;2.07;;;;;;;0.03;100.00;95084.03;10536763;28;20331;-81
2022/01/09 16:13:42;;;;;;;3.70;2.10;;;;;;;0.09;100.00;95093.81;10536044;28;20191;-80
2022/01/09 16:18:42;;;;;;;3.40;2.37;;;;;;;0.13;100.00;95116.56;10536263;28;20221;-81
2022/01/09 16:23:43;;;;;;;12.43;6.80;;;;;;;0.17;100.00;95110.22;10517865;28;20222;-80
2022/01/09 16:28:44;;;;;;;2.63;1.97;;;;;;;0.18;100.00;95126.47;10518293;28;20180;-81
2022/01/09 16:33:44;;;;;;;3.80;2.97;;;;;;;0.17;100.00;95133.41;10535585;28;20198;-81
2022/01/09 16:38:45;;;;;;;4.50;3.20;;;;;;;0.24;100.00;95149.13;10535596;28;20328;-81
2022/01/09 16:43:46;;;;;;;4.00;3.30;;;;;;;0.29;100.00;95152.16;10516980;28;20194;-79
2022/01/09 16:48:47;;;;;;;4.77;4.10;;;;;;;0.26;100.00;95173.00;10534550;28;20656;-79
2022/01/09 16:53:47;;;;;;;3.80;2.93;;;;;;;0.26;100.00;95177.31;10516294;28;20195;-79
2022/01/09 16:58:47;;;;;;;5.93;4.80;;;;;;;0.24;100.00;95186.94;10515677;28;20693;-79
2022/01/09 17:03:49;;;;;;;10.20;8.03;;;;;;;0.28;100.00;95199.44;10501520;28;20627;-79
2022/01/09 17:08:50;;;;;;;6.17;4.93;;;;;;;0.31;100.00;95206.09;10517543;28;20552;-79
2022/01/09 17:13:51;;;;;;;50.93;23.07;;;;;;;0.27;100.00;95220.16;10517185;28;20192;-79
2022/01/09 17:18:51;;;;;;;12.87;7.83;;;;;;;0.31;100.00;95229.28;10500682;28;20672;-80
2022/01/09 17:23:52;;;;;;;8.60;5.63;;;;;;;0.40;100.00;95235.38;10517927;28;20624;-80
2022/01/09 17:28:52;;;;;;;20.93;10.33;;;;;;;0.41;100.00;95242.97;10518038;28;20193;-80
2022/01/09 17:33:52;;;;;;;6.47;5.13;;;;;;;0.41;100.00;95240.41;10517048;28;20194;-80
2022/01/09 17:38:53;;;;;;;7.20;5.40;;;;;;;0.44;100.00;95252.22;10518403;28;20223;-80
2022/01/09 17:43:53;;;;;;;5.90;4.10;;;;;;;0.46;100.00;95261.47;10528875;28;20602;-80
2022/01/09 17:48:55;;;;;;;8.53;4.93;;;;;;;0.44;100.00;95272.84;10541172;28;20615;-81
2022/01/09 17:53:57;;;;;;;5.67;4.27;;;;;;;0.43;100.00;95273.75;10540863;28;20261;-80
2022/01/09 17:58:59;;;;;;;8.00;4.77;;;;;;;0.46;100.00;95291.53;10522053;28;20257;-81
2022/01/09 18:03:59;;;;;;;6.57;4.37;;;;;;;0.49;100.00;95292.13;10540351;28;20219;-81
2022/01/09 18:08:59;;;;;;;4.47;3.40;;;;;;;0.47;100.00;95306.88;10539993;28;20186;-82
2022/01/09 18:14:00;;;;;;;4.13;3.73;;;;;;;0.47;100.00;95309.44;10538769;28;20198;-80
2022/01/09 18:19:00;;;;;;;4.03;3.63;;;;;;;0.43;100.00;95315.81;10520149;28;20261;-81
2022/01/09 18:24:01;;;;;;;11.27;6.87;;;;;;;0.43;100.00;95326.13;10540045;28;20190;-81
2022/01/09 18:29:02;;;;;;;16.87;8.13;;;;;;;0.45;100.00;95323.41;10538865;28;20712;-80
2022/01/09 18:34:02;;;;;;;7.63;4.50;;;;;;;0.41;100.00;95320.25;10539351;28;20201;-81
2022/01/09 18:39:03;;;;;;;12.20;5.90;;;;;;;0.39;100.00;95347.94;10520210;28;20237;-80
2022/01/09 18:44:03;;;;;;;4.67;3.57;;;;;;;0.39;100.00;95355.66;10520726;28;20646;-80
2022/01/09 18:49:04;;;;;;;2.63;2.43;;;;;;;0.49;100.00;95355.69;10539004;28;20210;-80
2022/01/09 18:54:04;;;;;;;3.03;2.40;;;;;;;0.45;100.00;95367.22;10538052;28;20223;-80
2022/01/09 18:59:04;;;;;;;2.73;2.00;;;;;;;0.48;100.00;95360.03;10538045;28;20224;-80
2022/01/09 19:04:07;;;;;;;2.63;2.43;;;;;;;0.43;100.00;95374.22;10537792;28;20703;-80
2022/01/09 19:09:07;;;;;;;2.93;2.33;;;;;;;0.46;100.00;95376.56;10537217;28;20180;-80
2022/01/09 19:14:07;;;;;;;2.77;2.40;;;;;;;0.44;100.00;95386.19;10537322;28;20194;-80
2022/01/09 19:19:08;;;;;;;3.40;2.77;;;;;;;0.45;100.00;95393.78;10537272;28;20219;-80
2022/01/09 19:24:08;;;;;;;3.10;2.80;;;;;;;0.50;100.00;95395.97;10537100;28;20194;-80
2022/01/09 19:29:08;;;;;;;4.87;3.30;;;;;;;0.52;100.00;95402.66;10536262;28;20249;-80
2022/01/09 19:34:09;;;;;;;3.90;3.10;;;;;;;0.55;100.00;95416.22;10515238;28;20183;-80
2022/01/09 19:39:09;;;;;;;3.80;3.10;;;;;;;0.47;100.00;95415.06;10492190;28;20608;-80
2022/01/09 19:44:10;;;;;;;3.07;2.77;;;;;;;0.42;100.00;95424.16;10492987;28;20525;-80
2022/01/09 19:49:11;;;;;;;3.53;3.03;;;;;;;0.25;100.00;95439.22;10471458;28;20198;-80
2022/01/09 19:54:12;;;;;;;4.37;2.93;;;;;;;0.26;100.00;95448.59;10469594;28;20294;-79
2022/01/09 19:59:13;;;;;;;4.87;3.60;;;;;;;0.25;100.00;95459.00;10494005;28;20644;-80
2022/01/09 20:04:13;;;;;;;5.37;4.20;;;;;;;0.30;100.00;95462.81;10475383;28;20667;-81
2022/01/09 20:09:14;;;;;;;7.37;3.93;;;;;;;0.37;100.00;95467.47;10493383;28;20177;-81
2022/01/09 20:14:14;;;;;;;7.50;4.77;;;;;;;0.35;100.00;95481.31;10475330;28;20225;-81
2022/01/09 20:19:16;;;;;;;9.97;5.17;;;;;;;0.35;100.00;95476.16;10475347;28;20306;-80
2022/01/09 20:24:18;;;;;;;7.47;5.53;;;;;;;0.38;100.00;95482.00;10492731;28;20191;-82
2022/01/09 20:29:19;;;;;;;9.57;5.27;;;;;;;0.47;100.00;95489.78;10493101;28;20233;-81
2022/01/09 20:34:20;;;;;;;8.33;6.00;;;;;;;0.58;100.00;95494.06;10475042;28;20661;-82
2022/01/09 20:39:21;;;;;;;10.03;6.10;;;;;;;0.52;100.00;95503.13;10521117;28;20573;-82
2022/01/09 20:44:22;;;;;;;10.27;6.50;;;;;;;0.66;100.00;95514.91;10533867;28;20188;-81
2022/01/09 20:49:22;;;;;;;14.03;7.07;;;;;;;0.49;100.00;95518.84;10499251;28;20194;-82
2022/01/09 20:54:23;;;;;;;10.83;6.43;;;;;;;0.52;100.00;95523.75;10533919;28;20525;-81
2022/01/09 20:59:23;;;;;;;11.93;6.07;;;;;;;0.57;100.00;95525.97;10534712;28;20297;-81
2022/01/09 21:04:24;;;;;;;10.03;6.53;;;;;;;0.55;100.00;95532.16;10533397;28;20216;-82
2022/01/09 21:09:26;;;;;;;11.87;6.03;;;;;;;0.51;100.00;95540.16;10533103;28;20192;-80
2022/01/09 21:14:26;;;;;;;11.83;6.27;;;;;;;0.59;100.00;95547.25;10524991;28;20198;-79
2022/01/09 21:19:27;;;;;;;10.57;6.93;;;;;;;0.56;100.00;95544.94;10516055;28;20225;-80
2022/01/09 21:24:28;;;;;;;9.53;6.80;;;;;;;0.53;100.00;95558.06;10516549;28;20195;-80
2022/01/09 21:29:29;;;;;;;12.27;6.53;;;;;;;0.55;100.00;95563.91;10534828;28;20186;-79
2022/01/09 21:34:30;;;;;;;17.37;8.23;;;;;;;0.50;100.00;95571.19;10498731;28;20196;-79
2022/01/09 21:39:30;;;;;;;16.77;7.67;;;;;;;0.55;100.00;95581.94;10534393;28;20237;-80
2022/01/09 21:44:31;;;;;;;13.77;7.23;;;;;;;0.56;100.00;95581.00;10516714;28;20195;-79
2022/01/09 21:49:32;;;;;;;20.13;7.60;;;;;;;0.47;100.00;95579.97;10533860;28;20283;-80
2022/01/09 21:54:34;;;;;;;12.03;7.80;;;;;;;0.53;100.00;95591.56;10521510;28;20189;-79
2022/01/09 21:59:34;;;;;;;14.73;7.50;;;;;;;0.52;100.00;95595.91;10542077;28;20349;-79
2022/01/09 22:04:39;;;;;;;13.90;7.40;;;;;;;0.59;100.00;95609.09;10506450;28;20197;-80
2022/01/09 22:09:39;;;;;;;15.87;8.27;;;;;;;0.57;100.00;95616.16;10541217;28;20178;-80
2022/01/09 22:14:39;;;;;;;18.03;8.07;;;;;;;0.53;100.00;95625.06;10541510;28;20198;-80
2022/01/09 22:19:40;;;;;;;13.27;7.50;;;;;;;0.51;100.00;95632.09;10540974;28;20225;-80
2022/01/09 22:24:43;;;;;;;11.63;6.27;;;;;;;0.63;100.00;95638.00;10541326;28;20187;-79
2022/01/09 22:29:43;;;;;;;17.13;7.33;;;;;;;0.59;100.00;95639.22;10540441;28;20204;-80
2022/01/09 22:34:44;;;;;;;12.40;6.57;;;;;;;0.59;100.00;95652.09;10540592;28;20203;-79
2022/01/09 22:39:44;;;;;;;15.00;6.83;;;;;;;0.59;100.00;95657.25;10521794;28;20234;-79
2022/01/09 22:44:51;;;;;;;13.13;7.37;;;;;;;0.59;100.00;95663.22;10522783;28;20190;-80
2022/01/09 22:49:51;;;;;;;11.90;5.83;;;;;;;0.62;100.00;95668.13;10521916;28;20297;-79
2022/01/09 22:54:52;;;;;;;14.57;6.23;;;;;;;0.56;100.00;95681.50;10540092;28;20714;-79
2022/01/09 22:59:52;;;;;;;9.97;6.60;;;;;;;0.59;100.00;95685.59;10539679;28;20213;-79
2022/01/09 23:04:52;;;;;;;13.93;7.07;;;;;;;0.60;100.00;95694.94;10538298;28;20652;-79
2022/01/09 23:09:54;;;;;;;19.37;7.43;;;;;;;0.57;100.00;95702.94;10538759;28;20197;-80